Time;durP1;ratioP1;P1;durP2;ratioP2;P2;SDS_P1;SDS_P2;PMS_P1;PMS_P2;Temp;Humidity;BMP_temperature;BMP_pressure;BME280_temperature;BME280_humidity;BME280_pressure;Samples;Min_cycle;Max_cycle;Signal;HPM_P1;HPM_P2
2020/12/18 00:01:44;;;;;;;37.08;22.70;;;22.50;32.60;;;;;;6177284;28;83343;-55
2020/12/18 00:04:46;;;;;;;36.90;22.98;;;22.50;32.60;;;;;;6178750;28;91529;-53
2020/12/18 00:07:46;;;;;;;36.58;23.17;;;22.40;32.50;;;;;;6176495;28;83271;-55
2020/12/18 00:10:47;;;;;;;37.08;22.70;;;22.50;32.50;;;;;;6175996;28;82948;-55
2020/12/18 00:13:47;;;;;;;34.20;21.73;;;22.50;32.50;;;;;;6163426;27;86625;-54
2020/12/18 00:16:48;;;;;;;37.00;22.25;;;22.50;32.50;;;;;;6178653;28;83970;-54
2020/12/18 00:19:48;;;;;;;35.53;22.77;;;22.50;32.40;;;;;;6177250;28;83406;-53
2020/12/18 00:22:49;;;;;;;38.03;22.60;;;22.50;32.40;;;;;;6176291;28;83140;-56
2020/12/18 00:25:49;;;;;;;37.35;23.13;;;22.40;32.40;;;;;;6175875;28;86757;-55
2020/12/18 00:28:50;;;;;;;34.60;21.27;;;22.50;32.40;;;;;;6177212;28;83080;-55
2020/12/18 00:31:50;;;;;;;34.88;22.17;;;22.50;32.40;;;;;;6174383;27;83134;-58
2020/12/18 00:34:51;;;;;;;36.15;21.02;;;22.50;32.50;;;;;;6177162;28;82930;-53
2020/12/18 00:37:51;;;;;;;32.67;20.63;;;22.40;32.50;;;;;;6177083;27;83785;-53
2020/12/18 00:40:52;;;;;;;36.95;22.00;;;22.40;32.50;;;;;;6177939;28;82963;-54
2020/12/18 00:43:52;;;;;;;33.55;20.55;;;22.50;32.50;;;;;;6178037;27;83221;-53
2020/12/18 00:46:53;;;;;;;34.35;20.50;;;22.40;32.50;;;;;;6177079;28;83492;-55
2020/12/18 00:49:53;;;;;;;34.83;21.60;;;22.40;32.50;;;;;;6174765;28;86091;-52
2020/12/18 00:52:54;;;;;;;33.72;21.17;;;22.40;32.70;;;;;;6175163;27;85061;-52
2020/12/18 00:55:54;;;;;;;34.17;20.77;;;22.40;32.60;;;;;;6176504;28;86762;-52
2020/12/18 00:58:55;;;;;;;34.22;20.55;;;22.40;33.30;;;;;;6171889;28;85600;-54
2020/12/18 01:01:57;;;;;;;32.92;20.02;;;22.40;32.70;;;;;;6176470;28;85507;-52
2020/12/18 01:04:58;;;;;;;33.80;20.42;;;22.40;32.80;;;;;;6169154;28;84983;-55
2020/12/18 01:07:58;;;;;;;32.08;19.42;;;22.40;32.70;;;;;;6173953;28;84536;-52
2020/12/18 01:10:59;;;;;;;30.17;18.90;;;22.40;32.80;;;;;;6175446;28;85869;-53
2020/12/18 01:14:00;;;;;;;35.60;21.40;;;22.40;32.90;;;;;;6175315;28;85770;-55
2020/12/18 01:17:01;;;;;;;33.25;19.58;;;22.40;33.10;;;;;;6174702;28;83589;-54
2020/12/18 01:20:01;;;;;;;33.38;20.02;;;22.40;33.10;;;;;;6177464;28;83165;-54
2020/12/18 01:23:02;;;;;;;32.33;19.63;;;22.40;33.70;;;;;;6174622;27;85490;-53
2020/12/18 01:26:02;;;;;;;31.15;18.52;;;22.40;33.00;;;;;;6154721;28;86141;-54
2020/12/18 01:29:03;;;;;;;34.38;18.90;;;22.40;33.00;;;;;;6174424;27;84022;-56
2020/12/18 01:32:05;;;;;;;33.33;18.90;;;22.40;33.00;;;;;;6187921;28;84146;-55
2020/12/18 01:35:06;;;;;;;30.60;18.98;;;22.30;33.00;;;;;;6175865;28;85580;-54
2020/12/18 01:38:11;;;;;;;29.13;17.85;;;22.30;33.10;;;;;;6175552;28;84951;-57
2020/12/18 01:41:14;;;;;;;28.20;17.08;;;22.30;33.10;;;;;;6173773;28;84283;-55
2020/12/18 01:44:14;;;;;;;32.55;17.55;;;22.30;33.10;;;;;;6175392;27;85704;-55
2020/12/18 01:47:19;;;;;;;27.95;16.67;;;22.30;33.20;;;;;;6174403;28;84015;-58
2020/12/18 01:50:20;;;;;;;30.13;17.85;;;22.30;33.20;;;;;;6154245;27;84347;-50
2020/12/18 01:53:25;;;;;;;26.98;17.33;;;22.30;33.20;;;;;;6165698;28;86017;-51
2020/12/18 01:56:44;;;;;;;30.45;16.55;;;22.30;33.00;;;;;;6174569;27;83418;-52
2020/12/18 01:59:52;;;;;;;26.63;16.08;;;22.40;33.10;;;;;;6174623;28;85312;-53
2020/12/18 02:03:15;;;;;;;29.05;16.50;;;22.40;33.00;;;;;;6172747;28;84412;-52
2020/12/18 02:06:46;;;;;;;27.95;16.50;;;22.30;32.70;;;;;;6162023;28;86801;-55
2020/12/18 02:09:52;;;;;;;27.02;16.15;;;22.40;32.80;;;;;;6167073;28;86105;-53
2020/12/18 02:12:55;;;;;;;26.77;16.40;;;22.40;32.90;;;;;;6173348;28;85282;-52
2020/12/18 02:15:56;;;;;;;26.10;16.98;;;22.40;32.80;;;;;;6176171;28;83254;-52
2020/12/18 02:19:08;;;;;;;26.02;15.80;;;22.40;32.70;;;;;;6175199;27;90149;-57
2020/12/18 02:22:08;;;;;;;26.08;15.02;;;22.40;32.80;;;;;;6172873;28;83180;-54
2020/12/18 02:25:09;;;;;;;27.42;16.63;;;22.40;32.90;;;;;;6175257;27;84777;-55
2020/12/18 02:28:12;;;;;;;26.15;16.23;;;22.40;32.80;;;;;;6175092;28;84310;-56
2020/12/18 02:31:13;;;;;;;29.25;15.98;;;22.40;32.90;;;;;;6171979;28;86493;-54
2020/12/18 02:34:19;;;;;;;;;;;22.40;32.90;;;;;;6167984;27;85864;-55
2020/12/18 02:37:21;;;;;;;27.27;15.50;;;22.40;33.20;;;;;;6181337;28;83091;-54
2020/12/18 02:40:21;;;;;;;26.23;15.60;;;22.40;33.10;;;;;;6173521;28;83694;-57
2020/12/18 02:43:40;;;;;;;26.10;15.45;;;22.40;33.20;;;;;;6172790;28;89015;-56
2020/12/18 02:46:43;;;;;;;26.45;14.85;;;22.40;33.20;;;;;;6157449;28;84157;-54
2020/12/18 02:49:44;;;;;;;23.48;15.43;;;22.40;33.80;;;;;;6190766;28;86035;-51
2020/12/18 02:52:45;;;;;;;23.60;15.10;;;22.40;33.20;;;;;;6172343;28;83449;-53
2020/12/18 02:56:17;;;;;;;26.05;16.55;;;22.30;33.20;;;;;;6172665;28;83873;-57
2020/12/18 02:59:38;;;;;;;26.13;14.88;;;22.40;33.10;;;;;;6174705;27;86979;-56
2020/12/18 03:02:39;;;;;;;24.10;14.77;;;22.40;33.10;;;;;;6172155;28;83550;-55
2020/12/18 03:05:42;;;;;;;23.15;14.65;;;22.40;33.30;;;;;;6170823;28;85326;-55
2020/12/18 03:08:57;;;;;;;26.38;14.70;;;22.40;33.30;;;;;;6188734;28;85948;-54
2020/12/18 03:11:57;;;;;;;23.77;14.65;;;22.30;33.30;;;;;;6172742;28;83404;-55
2020/12/18 03:14:58;;;;;;;25.92;15.20;;;22.30;33.20;;;;;;6173616;28;83819;-51
2020/12/18 03:18:18;;;;;;;25.25;15.32;;;22.30;33.20;;;;;;6170212;28;86563;-55
2020/12/18 03:21:19;;;;;;;24.15;14.85;;;22.30;33.30;;;;;;6172692;28;85137;-54
2020/12/18 03:24:22;;;;;;;24.63;14.63;;;22.30;33.30;;;;;;6174691;28;83240;-56
2020/12/18 03:27:43;;;;;;;26.98;15.48;;;22.30;33.10;;;;;;6172679;28;86198;-52
2020/12/18 03:30:44;;;;;;;24.77;15.65;;;22.30;33.30;;;;;;6172598;27;85749;-50
2020/12/18 03:33:45;;;;;;;25.00;15.35;;;22.30;33.20;;;;;;6171573;28;85207;-54
2020/12/18 03:36:59;;;;;;;23.67;13.65;;;22.30;33.30;;;;;;6173994;28;85565;-51
2020/12/18 03:40:00;;;;;;;23.65;14.25;;;22.30;33.20;;;;;;6172575;28;85229;-54
2020/12/18 03:43:04;;;;;;;24.38;14.50;;;22.30;33.30;;;;;;6172103;28;86037;-54
2020/12/18 03:46:08;;;;;;;22.17;14.00;;;22.30;33.10;;;;;;6173247;28;83653;-51
2020/12/18 03:49:34;;;;;;;22.27;13.55;;;22.30;33.20;;;;;;6170346;27;89395;-53
2020/12/18 03:52:38;;;;;;;22.35;13.90;;;22.30;33.30;;;;;;6171581;28;85875;-54
2020/12/18 03:55:39;;;;;;;22.02;12.90;;;22.30;33.20;;;;;;6172649;27;84207;-57
2020/12/18 03:58:52;;;;;;;23.92;14.45;;;22.30;33.30;;;;;;6173488;28;86056;-55
2020/12/18 04:02:08;;;;;;;26.00;13.50;;;22.30;33.30;;;;;;6172080;27;85518;-54
2020/12/18 04:05:11;;;;;;;23.80;15.13;;;22.30;33.00;;;;;;6172248;28;85266;-51
2020/12/18 04:08:13;;;;;;;21.52;14.10;;;22.30;33.00;;;;;;6175982;27;84544;-55
2020/12/18 04:11:45;;;;;;;21.15;13.07;;;22.30;33.10;;;;;;6174363;28;85124;-53
2020/12/18 04:15:05;;;;;;;22.05;14.52;;;22.30;33.30;;;;;;6176044;28;89457;-51
2020/12/18 04:18:18;;;;;;;25.88;15.30;;;22.40;32.70;;;;;;6175124;28;85062;-54
2020/12/18 04:21:20;;;;;;;25.45;14.30;;;22.40;32.80;;;;;;6175384;28;85351;-54
2020/12/18 04:24:39;;;;;;;26.20;14.23;;;22.40;33.40;;;;;;6172455;28;85998;-55
2020/12/18 04:27:40;;;;;;;24.40;14.50;;;22.50;33.00;;;;;;6172196;28;84198;-53
2020/12/18 04:30:43;;;;;;;21.30;14.23;;;22.50;33.10;;;;;;6176392;28;85388;-56
2020/12/18 04:33:44;;;;;;;26.95;15.90;;;22.60;32.60;;;;;;6175136;28;85862;-53
2020/12/18 04:36:46;;;;;;;25.65;14.77;;;22.60;32.50;;;;;;6171904;28;82935;-51
2020/12/18 04:39:49;;;;;;;27.15;15.35;;;22.60;32.40;;;;;;6174304;28;85108;-56
2020/12/18 04:42:55;;;;;;;25.15;14.50;;;22.70;32.50;;;;;;6176491;28;86050;-54
2020/12/18 04:45:56;;;;;;;22.17;13.88;;;22.70;32.50;;;;;;6155647;28;86098;-51
2020/12/18 04:48:59;;;;;;;22.00;13.75;;;22.70;32.50;;;;;;6171216;28;83429;-51
2020/12/18 04:52:06;;;;;;;24.00;14.35;;;22.70;32.50;;;;;;6169884;28;83138;-51
2020/12/18 04:55:14;;;;;;;23.60;13.32;;;22.70;32.50;;;;;;6174787;28;85484;-54
2020/12/18 04:58:33;;;;;;;21.73;13.55;;;22.80;32.60;;;;;;6176189;28;83044;-53
2020/12/18 05:01:34;;;;;;;23.63;14.65;;;22.80;32.60;;;;;;6174037;28;85883;-53
2020/12/18 05:04:38;;;;;;;24.38;13.98;;;22.80;32.60;;;;;;6175745;28;86031;-55
2020/12/18 05:08:09;;;;;;;22.73;13.40;;;22.80;32.60;;;;;;6175771;28;86087;-50
2020/12/18 05:11:09;;;;;;;23.48;13.23;;;22.80;32.70;;;;;;6174018;28;85411;-52
2020/12/18 05:14:10;;;;;;;23.15;13.32;;;22.80;32.60;;;;;;6174327;28;84539;-52
2020/12/18 05:17:25;;;;;;;19.58;12.60;;;22.90;32.60;;;;;;6173496;28;85996;-52
2020/12/18 05:20:26;;;;;;;20.30;13.25;;;22.90;32.70;;;;;;6175624;28;84026;-54
2020/12/18 05:24:05;;;;;;;22.42;13.82;;;22.90;32.70;;;;;;6175128;28;88256;-54
2020/12/18 05:27:15;;;;;;;21.80;13.52;;;22.90;32.60;;;;;;6174944;28;85824;-55
2020/12/18 05:30:16;;;;;;;24.77;13.32;;;22.90;32.80;;;;;;6151727;27;85378;-50
2020/12/18 05:33:37;;;;;;;20.42;13.00;;;22.90;33.40;;;;;;6152325;28;84951;-54
2020/12/18 05:37:01;;;;;;;20.90;12.95;;;22.90;32.70;;;;;;6175469;27;83841;-55
2020/12/18 05:40:21;;;;;;;20.85;12.57;;;22.90;32.60;;;;;;6174872;28;83821;-50
2020/12/18 05:43:48;;;;;;;25.60;13.82;;;22.90;32.60;;;;;;6176729;27;84062;-54
2020/12/18 05:47:17;;;;;;;21.75;13.48;;;23.00;32.60;;;;;;6167424;28;83405;-53
2020/12/18 05:50:19;;;;;;;22.98;12.93;;;23.00;32.80;;;;;;6174307;28;85852;-49
2020/12/18 05:53:21;;;;;;;21.88;13.38;;;23.00;32.80;;;;;;6175241;28;85893;-50
2020/12/18 05:56:32;;;;;;;20.58;12.93;;;23.10;32.70;;;;;;6168851;28;86174;-51
2020/12/18 05:59:35;;;;;;;19.63;12.73;;;23.10;32.60;;;;;;6175781;28;85157;-50
2020/12/18 06:02:46;;;;;;;22.52;11.95;;;23.10;33.50;;;;;;6172236;28;85428;-53
2020/12/18 06:05:53;;;;;;;18.40;11.88;;;23.10;33.50;;;;;;6173592;28;85690;-55
2020/12/18 06:09:01;;;;;;;16.98;10.32;;;23.10;34.50;;;;;;6171664;28;90001;-55
2020/12/18 06:12:02;;;;;;;13.18;8.77;;;23.10;35.60;;;;;;6172591;28;84069;-53
2020/12/18 06:15:03;;;;;;;15.00;8.85;;;23.10;36.30;;;;;;6176750;28;84850;-50
2020/12/18 06:18:04;;;;;;;12.68;7.72;;;23.10;37.10;;;;;;6165915;27;80907;-51
2020/12/18 06:21:05;;;;;;;13.27;7.50;;;23.10;37.90;;;;;;6178179;28;83213;-49
2020/12/18 06:24:06;;;;;;;14.68;8.27;;;23.10;38.40;;;;;;6178077;28;80139;-48
2020/12/18 06:27:29;;;;;;;9.43;6.00;;;23.00;39.00;;;;;;6167576;28;80790;-51
2020/12/18 06:30:42;;;;;;;9.52;6.15;;;23.00;39.70;;;;;;6176325;28;83070;-51
2020/12/18 06:34:02;;;;;;;11.70;5.63;;;23.00;40.70;;;;;;6175658;28;80905;-49
2020/12/18 06:37:21;;;;;;;8.02;4.82;;;22.90;41.40;;;;;;6174433;28;80745;-49
2020/12/18 06:40:41;;;;;;;8.35;4.93;;;22.80;41.90;;;;;;6178504;28;80877;-49
2020/12/18 06:44:20;;;;;;;8.10;4.95;;;22.80;42.30;;;;;;6175591;28;81617;-51
2020/12/18 06:47:21;;;;;;;8.63;4.38;;;22.80;42.40;;;;;;6177442;28;82167;-53
2020/12/18 06:50:45;;;;;;;6.95;4.63;;;22.80;42.70;;;;;;6179543;28;81061;-53
2020/12/18 06:54:05;;;;;;;7.00;3.80;;;22.70;43.20;;;;;;6177166;28;84720;-50
2020/12/18 06:57:13;;;;;;;11.25;4.40;;;22.70;43.60;;;;;;6176996;27;82386;-53
2020/12/18 07:00:20;;;;;;;8.57;4.57;;;22.70;43.90;;;;;;6177792;28;80580;-53
2020/12/18 07:03:21;;;;;;;8.40;4.72;;;22.70;44.20;;;;;;6164475;27;83204;-55
2020/12/18 07:06:21;;;;;;;8.07;5.07;;;22.70;44.30;;;;;;6176567;28;81689;-54
2020/12/18 07:09:22;;;;;;;7.28;4.60;;;22.70;43.60;;;;;;6178412;28;80307;-51
2020/12/18 07:12:22;;;;;;;6.95;4.35;;;22.70;44.10;;;;;;6178519;28;80734;-49
2020/12/18 07:15:23;;;;;;;7.35;4.55;;;22.70;44.40;;;;;;6176099;28;83458;-49
2020/12/18 07:18:24;;;;;;;7.82;5.00;;;22.70;44.40;;;;;;6170105;28;83336;-53
2020/12/18 07:21:24;;;;;;;382.80;110.32;;;22.80;44.40;;;;;;6172929;27;80877;-50
2020/12/18 07:24:25;;;;;;;869.35;327.20;;;22.70;45.00;;;;;;6169885;28;85811;-49
2020/12/18 07:27:25;;;;;;;949.63;366.42;;;22.70;45.10;;;;;;6170474;27;85776;-52
2020/12/18 07:30:26;;;;;;;939.65;369.10;;;22.70;45.20;;;;;;6168163;28;85599;-52
2020/12/18 07:33:26;;;;;;;736.88;271.60;;;22.70;45.40;;;;;;6168758;28;88428;-52
2020/12/18 07:36:27;;;;;;;1053.40;414.02;;;22.70;45.40;;;;;;6168611;28;85348;-49
2020/12/18 07:39:28;;;;;;;1201.22;461.75;;;22.70;45.60;;;;;;6170846;27;86363;-51
2020/12/18 07:42:28;;;;;;;1137.88;456.63;;;22.70;45.50;;;;;;6174321;28;86232;-50
2020/12/18 07:45:29;;;;;;;1221.47;479.48;;;22.70;46.40;;;;;;6169748;27;86060;-52
2020/12/18 07:48:29;;;;;;;1253.30;487.17;;;22.60;45.70;;;;;;6174322;28;86098;-48
2020/12/18 07:51:30;;;;;;;1031.80;401.90;;;22.60;45.70;;;;;;6174932;27;85335;-49
2020/12/18 07:54:30;;;;;;;854.60;331.23;;;22.60;45.80;;;;;;6170117;28;86048;-51
2020/12/18 07:57:31;;;;;;;730.05;277.70;;;22.60;46.10;;;;;;6173370;28;87259;-54
2020/12/18 08:00:31;;;;;;;555.67;196.60;;;22.60;46.60;;;;;;6174299;28;86511;-51
2020/12/18 08:03:32;;;;;;;502.38;164.63;;;22.60;45.90;;;;;;6174740;28;85823;-54
2020/12/18 08:06:32;;;;;;;412.65;132.43;;;22.60;46.00;;;;;;6174069;28;86361;-49
2020/12/18 08:09:33;;;;;;;379.02;118.45;;;22.60;45.70;;;;;;6174482;28;89261;-51
2020/12/18 08:12:33;;;;;;;284.88;94.25;;;22.60;45.80;;;;;;6184602;28;85924;-49
2020/12/18 08:15:35;;;;;;;227.30;79.80;;;22.60;45.90;;;;;;6179214;28;85256;-53
2020/12/18 08:18:36;;;;;;;200.52;66.47;;;22.60;46.00;;;;;;6176643;28;83202;-55
2020/12/18 08:21:36;;;;;;;176.07;58.78;;;22.60;46.40;;;;;;6176081;28;86231;-53
2020/12/18 08:24:37;;;;;;;139.48;51.25;;;22.60;46.50;;;;;;6178142;28;83417;-51
2020/12/18 08:27:37;;;;;;;112.95;40.78;;;22.50;46.20;;;;;;6174090;27;83808;-53
2020/12/18 08:30:38;;;;;;;93.32;33.60;;;22.60;45.70;;;;;;6174402;28;83708;-50
2020/12/18 08:33:38;;;;;;;89.55;29.02;;;22.60;46.10;;;;;;6176761;27;84341;-52
2020/12/18 08:36:39;;;;;;;75.70;25.92;;;22.60;47.00;;;;;;6178029;28;83190;-55
2020/12/18 08:39:39;;;;;;;55.28;21.80;;;22.60;47.10;;;;;;6178324;27;83971;-55
2020/12/18 08:42:40;;;;;;;57.20;21.27;;;22.60;46.60;;;;;;6171213;28;84260;-54
2020/12/18 08:45:40;;;;;;;60.53;19.45;;;22.60;46.80;;;;;;6177627;28;84034;-55
2020/12/18 08:48:41;;;;;;;51.47;18.02;;;22.60;46.70;;;;;;6173927;28;83220;-50
2020/12/18 08:51:41;;;;;;;39.20;16.02;;;22.50;46.50;;;;;;6170872;28;83437;-53
2020/12/18 08:54:42;;;;;;;41.78;16.10;;;22.60;46.80;;;;;;6151036;27;83225;-52
2020/12/18 08:57:43;;;;;;;42.65;15.85;;;22.60;46.80;;;;;;6173886;28;83228;-52
2020/12/18 09:00:43;;;;;;;34.85;15.10;;;22.50;46.40;;;;;;6175579;27;83950;-53
2020/12/18 09:03:44;;;;;;;37.25;14.85;;;22.50;46.40;;;;;;6177851;28;83204;-53
2020/12/18 09:06:44;;;;;;;28.50;12.63;;;22.50;46.50;;;;;;6177118;28;83747;-50
2020/12/18 09:09:45;;;;;;;31.73;13.95;;;22.50;46.50;;;;;;6171935;28;83739;-55
2020/12/18 09:12:45;;;;;;;37.47;14.90;;;22.50;47.00;;;;;;6176390;28;83793;-54
2020/12/18 09:15:46;;;;;;;35.63;14.93;;;22.50;46.20;;;;;;6158377;28;83588;-55
2020/12/18 09:18:46;;;;;;;40.40;16.83;;;22.50;45.50;;;;;;6179414;28;83409;-52
2020/12/18 09:21:47;;;;;;;43.38;16.75;;;22.60;44.90;;;;;;6185009;28;84222;-58
2020/12/18 09:24:48;;;;;;;43.33;16.05;;;22.60;44.70;;;;;;6168814;28;84490;-55
2020/12/18 09:27:48;;;;;;;42.50;17.10;;;22.70;44.50;;;;;;6177400;28;83691;-53
2020/12/18 09:30:49;;;;;;;41.70;16.65;;;22.70;43.90;;;;;;6175248;28;83452;-54
2020/12/18 09:33:49;;;;;;;44.33;18.60;;;22.80;43.50;;;;;;6175621;28;83082;-53
2020/12/18 09:36:50;;;;;;;44.45;18.45;;;22.80;42.90;;;;;;6172079;28;83944;-50
2020/12/18 09:39:50;;;;;;;41.67;17.05;;;22.90;42.70;;;;;;6175296;27;84075;-53
2020/12/18 09:42:51;;;;;;;38.72;17.55;;;22.90;42.30;;;;;;6175120;28;83030;-53
2020/12/18 09:45:51;;;;;;;41.83;17.67;;;23.00;42.20;;;;;;6175654;28;83293;-53
2020/12/18 09:48:52;;;;;;;51.10;19.00;;;23.00;41.90;;;;;;6175110;28;84334;-52
2020/12/18 09:51:52;;;;;;;42.95;18.80;;;23.10;41.70;;;;;;6176808;28;83980;-49
2020/12/18 09:54:53;;;;;;;40.22;16.83;;;23.10;41.50;;;;;;6177263;28;82994;-53
2020/12/18 09:57:54;;;;;;;40.13;17.80;;;23.10;41.10;;;;;;6173698;28;83609;-52
2020/12/18 10:00:54;;;;;;;38.25;17.77;;;23.10;40.70;;;;;;6174684;28;84065;-52
2020/12/18 10:03:55;;;;;;;34.58;16.52;;;23.10;40.30;;;;;;6175706;27;83174;-51
2020/12/18 10:06:55;;;;;;;44.25;16.83;;;23.20;40.40;;;;;;6172467;28;83572;-53
2020/12/18 10:09:56;;;;;;;36.10;16.83;;;23.20;39.70;;;;;;6168283;28;83387;-53
2020/12/18 10:12:56;;;;;;;30.17;15.48;;;23.20;39.30;;;;;;6169541;28;84232;-53
2020/12/18 10:15:57;;;;;;;34.30;15.68;;;23.20;39.20;;;;;;6173115;28;83408;-54
2020/12/18 10:18:57;;;;;;;27.77;14.88;;;23.20;38.80;;;;;;6174396;28;83783;-54
2020/12/18 10:21:58;;;;;;;29.27;14.63;;;23.20;38.60;;;;;;6170614;28;83161;-50
2020/12/18 10:24:59;;;;;;;36.35;16.05;;;23.20;38.50;;;;;;6176155;28;83362;-49
2020/12/18 10:28:02;;;;;;;30.15;15.30;;;23.20;38.30;;;;;;6173814;27;83941;-53
2020/12/18 10:31:02;;;;;;;30.40;15.57;;;23.20;38.20;;;;;;6175479;28;83634;-53
2020/12/18 10:34:04;;;;;;;35.70;15.35;;;23.20;38.80;;;;;;6171846;27;83610;-48
2020/12/18 10:37:05;;;;;;;38.40;16.08;;;23.10;38.70;;;;;;6167972;28;84208;-49
2020/12/18 10:40:05;;;;;;;31.50;15.68;;;23.10;39.40;;;;;;6175652;28;83273;-48
2020/12/18 10:43:06;;;;;;;30.08;15.23;;;23.10;40.00;;;;;;6175680;27;83329;-50
2020/12/18 10:46:06;;;;;;;29.52;14.30;;;23.10;41.40;;;;;;6173986;28;83175;-51
2020/12/18 10:49:07;;;;;;;35.28;15.00;;;23.10;41.20;;;;;;6174989;28;84022;-49
2020/12/18 10:52:08;;;;;;;31.77;15.18;;;23.10;41.90;;;;;;6176036;28;83430;-53
2020/12/18 10:55:08;;;;;;;38.10;17.20;;;23.10;42.20;;;;;;6172422;28;84589;-54
2020/12/18 10:58:09;;;;;;;31.83;15.57;;;23.20;44.40;;;;;;6167644;28;86406;-54
2020/12/18 11:01:09;;;;;;;27.65;15.27;;;23.20;44.70;;;;;;6172471;28;83369;-56
2020/12/18 11:04:10;;;;;;;29.05;16.20;;;23.20;43.40;;;;;;6167938;28;83280;-56
2020/12/18 11:07:10;;;;;;;26.00;15.07;;;23.20;43.40;;;;;;6170257;28;85457;-54
2020/12/18 11:10:11;;;;;;;25.48;14.40;;;23.20;42.90;;;;;;6167352;27;84465;-55
2020/12/18 11:13:12;;;;;;;26.63;13.88;;;23.20;42.90;;;;;;6170600;28;83571;-55
2020/12/18 11:16:12;;;;;;;27.33;14.45;;;23.20;43.60;;;;;;6171835;28;83258;-54
2020/12/18 11:19:13;;;;;;;29.02;13.90;;;23.20;43.10;;;;;;6170098;28;83704;-53
2020/12/18 11:22:15;;;;;;;24.92;13.88;;;23.10;42.90;;;;;;6173191;28;83902;-54
2020/12/18 11:25:16;;;;;;;28.83;13.20;;;23.20;42.90;;;;;;6173077;28;84141;-55
2020/12/18 11:28:16;;;;;;;30.65;14.82;;;23.10;42.90;;;;;;6174408;27;83689;-54
2020/12/18 11:31:17;;;;;;;36.42;15.52;;;23.10;42.60;;;;;;6165325;28;82962;-55
2020/12/18 11:34:17;;;;;;;34.85;14.60;;;23.10;42.70;;;;;;6173362;27;84218;-52
2020/12/18 11:37:18;;;;;;;29.10;14.80;;;23.10;42.60;;;;;;6172745;28;84162;-50
2020/12/18 11:40:19;;;;;;;25.30;13.88;;;23.10;42.40;;;;;;6164720;28;83084;-50
2020/12/18 11:43:20;;;;;;;29.38;13.55;;;23.10;41.90;;;;;;6167692;28;83198;-53
2020/12/18 11:46:20;;;;;;;28.70;13.88;;;23.10;42.50;;;;;;6172714;28;83551;-52
2020/12/18 11:49:21;;;;;;;33.80;14.65;;;23.10;42.20;;;;;;6173326;28;84120;-53
2020/12/18 11:52:21;;;;;;;33.88;13.77;;;23.00;42.30;;;;;;6172965;28;83462;-53
2020/12/18 11:55:22;;;;;;;33.10;14.25;;;23.00;41.80;;;;;;6170755;28;83343;-53
2020/12/18 11:58:23;;;;;;;29.88;14.02;;;23.00;42.50;;;;;;6166486;27;84368;-49
2020/12/18 12:01:23;;;;;;;24.02;13.68;;;23.00;41.50;;;;;;6168534;28;83042;-51
2020/12/18 12:04:24;;;;;;;27.52;14.48;;;23.00;41.30;;;;;;6168734;28;83580;-49
2020/12/18 12:07:24;;;;;;;32.60;14.85;;;22.90;41.10;;;;;;6160995;28;83423;-49
2020/12/18 12:10:25;;;;;;;31.40;15.10;;;22.90;40.80;;;;;;6174460;28;84276;-52
2020/12/18 12:13:25;;;;;;;31.42;14.43;;;22.90;40.60;;;;;;6172005;28;83716;-52
2020/12/18 12:16:26;;;;;;;32.90;15.63;;;22.90;40.60;;;;;;6173179;27;83645;-49
2020/12/18 12:19:28;;;;;;;26.80;14.60;;;22.90;40.30;;;;;;6174976;28;83195;-54
2020/12/18 12:22:28;;;;;;;38.78;15.88;;;22.90;40.40;;;;;;6169863;27;83629;-51
2020/12/18 12:25:29;;;;;;;33.20;15.60;;;22.90;40.20;;;;;;6170989;28;91660;-55
2020/12/18 12:28:29;;;;;;;34.03;16.02;;;22.80;39.90;;;;;;6175305;28;83240;-54
2020/12/18 12:31:30;;;;;;;36.58;15.13;;;22.80;40.20;;;;;;6175601;28;84240;-56
2020/12/18 12:34:31;;;;;;;32.58;15.30;;;22.80;40.20;;;;;;6174012;28;84163;-55
2020/12/18 12:37:31;;;;;;;31.20;14.77;;;22.80;40.00;;;;;;6175452;27;83301;-52
2020/12/18 12:40:32;;;;;;;38.10;16.08;;;22.80;39.90;;;;;;6175947;28;83864;-55
2020/12/18 12:43:32;;;;;;;32.03;16.23;;;22.90;39.60;;;;;;6176232;27;83346;-51
2020/12/18 12:46:33;;;;;;;32.13;16.83;;;22.90;39.70;;;;;;6174521;28;84290;-54
2020/12/18 12:49:33;;;;;;;40.60;17.27;;;22.90;39.60;;;;;;6174723;28;83341;-51
2020/12/18 12:52:34;;;;;;;31.48;17.20;;;22.80;39.30;;;;;;6164995;28;83399;-52
2020/12/18 12:55:34;;;;;;;31.02;15.70;;;22.80;39.20;;;;;;6160918;28;83599;-54
2020/12/18 12:58:35;;;;;;;32.28;16.33;;;22.90;39.10;;;;;;6176245;28;83157;-55
2020/12/18 13:01:35;;;;;;;31.40;16.13;;;22.80;39.00;;;;;;6165816;27;83887;-53
2020/12/18 13:04:36;;;;;;;30.50;16.50;;;22.80;39.00;;;;;;6173535;28;84231;-50
2020/12/18 13:07:36;;;;;;;29.58;15.27;;;22.80;38.90;;;;;;6174563;27;83686;-54
2020/12/18 13:10:37;;;;;;;28.60;14.75;;;22.80;39.00;;;;;;6173592;28;83431;-52
2020/12/18 13:13:38;;;;;;;33.17;17.40;;;22.80;39.00;;;;;;6175427;28;83651;-53
2020/12/18 13:16:38;;;;;;;29.45;15.90;;;22.80;38.80;;;;;;6170761;28;83773;-54
2020/12/18 13:19:39;;;;;;;34.90;17.15;;;22.80;38.80;;;;;;6175333;27;84377;-50
2020/12/18 13:22:39;;;;;;;30.02;15.93;;;22.80;38.90;;;;;;6167322;28;83560;-53
2020/12/18 13:25:40;;;;;;;33.78;17.67;;;22.90;38.90;;;;;;6174023;28;82914;-55
2020/12/18 13:28:40;;;;;;;29.60;17.17;;;22.90;38.80;;;;;;6176137;28;83770;-49
2020/12/18 13:31:41;;;;;;;31.75;16.65;;;22.90;38.80;;;;;;6174452;27;83559;-50
2020/12/18 13:34:41;;;;;;;31.90;17.42;;;22.90;38.70;;;;;;6173229;28;83343;-50
2020/12/18 13:37:42;;;;;;;30.08;17.58;;;23.00;38.70;;;;;;6171837;28;83620;-50
2020/12/18 13:40:43;;;;;;;34.53;16.98;;;23.00;38.40;;;;;;6157959;28;83074;-51
2020/12/18 13:43:43;;;;;;;28.60;17.10;;;23.00;38.30;;;;;;6151651;28;85460;-51
2020/12/18 13:46:44;;;;;;;29.20;16.27;;;23.00;38.20;;;;;;6148559;28;84480;-50
2020/12/18 13:49:44;;;;;;;33.13;18.52;;;23.10;38.10;;;;;;6164855;28;82850;-56
2020/12/18 13:52:45;;;;;;;32.20;17.55;;;23.10;38.00;;;;;;6173544;28;83172;-55
2020/12/18 13:55:48;;;;;;;31.38;16.70;;;23.20;38.20;;;;;;6171759;27;84207;-51
2020/12/18 13:58:48;;;;;;;41.33;19.00;;;23.20;38.40;;;;;;6168862;28;83431;-54
2020/12/18 14:01:49;;;;;;;41.90;19.42;;;23.30;38.80;;;;;;6174035;28;86528;-53
2020/12/18 14:04:49;;;;;;;51.17;20.73;;;23.30;38.70;;;;;;6173556;28;82979;-51
2020/12/18 14:07:50;;;;;;;38.97;18.60;;;23.30;38.90;;;;;;6168939;27;86879;-49
2020/12/18 14:10:50;;;;;;;44.28;20.77;;;23.30;38.80;;;;;;6171987;28;83979;-49
2020/12/18 14:13:51;;;;;;;44.70;18.75;;;23.30;39.10;;;;;;6175158;27;83521;-49
2020/12/18 14:16:51;;;;;;;45.10;21.55;;;23.40;39.50;;;;;;6156970;28;83690;-54
2020/12/18 14:19:52;;;;;;;45.75;21.85;;;23.40;39.80;;;;;;6148373;28;83562;-50
2020/12/18 14:22:53;;;;;;;48.90;21.35;;;23.40;39.80;;;;;;6163699;28;83417;-51
2020/12/18 14:25:53;;;;;;;44.80;21.60;;;23.40;40.10;;;;;;6175017;28;82948;-53
2020/12/18 14:28:54;;;;;;;42.13;19.60;;;23.40;40.00;;;;;;6174878;28;83568;-55
2020/12/18 14:31:54;;;;;;;44.05;21.65;;;23.40;40.30;;;;;;6175231;28;83304;-53
2020/12/18 14:34:55;;;;;;;43.90;20.58;;;23.40;40.30;;;;;;6174112;27;83745;-54
2020/12/18 14:37:55;;;;;;;39.22;19.58;;;23.40;40.40;;;;;;6158277;28;83278;-54
2020/12/18 14:40:56;;;;;;;50.63;21.92;;;23.40;40.60;;;;;;6149174;28;84175;-53
2020/12/18 14:43:56;;;;;;;37.95;21.50;;;23.40;40.20;;;;;;6165508;28;83157;-54
2020/12/18 14:46:57;;;;;;;42.35;21.75;;;23.40;40.10;;;;;;6173884;28;84001;-55
2020/12/18 14:49:58;;;;;;;39.95;19.90;;;23.40;40.10;;;;;;6172385;28;83493;-55
2020/12/18 14:52:58;;;;;;;37.88;19.67;;;23.40;40.10;;;;;;6174424;28;84766;-57
2020/12/18 14:55:59;;;;;;;38.17;19.60;;;23.30;39.90;;;;;;6170887;28;83472;-53
2020/12/18 14:58:59;;;;;;;39.20;19.83;;;23.30;40.00;;;;;;6173273;28;84239;-55
2020/12/18 15:02:00;;;;;;;39.15;20.65;;;23.30;40.10;;;;;;6174152;27;83437;-52
2020/12/18 15:05:00;;;;;;;35.60;19.80;;;23.30;40.00;;;;;;6171363;28;83389;-50
2020/12/18 15:08:01;;;;;;;43.65;20.65;;;23.30;39.80;;;;;;6174072;28;83900;-55
2020/12/18 15:11:01;;;;;;;36.05;20.70;;;23.30;39.70;;;;;;6173811;28;84145;-54
2020/12/18 15:14:02;;;;;;;35.03;19.73;;;23.30;39.80;;;;;;6174119;28;84386;-53
2020/12/18 15:17:03;;;;;;;38.10;19.58;;;23.30;39.70;;;;;;6172749;28;83654;-54
2020/12/18 15:20:03;;;;;;;38.05;18.98;;;23.30;39.70;;;;;;6156641;28;85039;-53
2020/12/18 15:23:04;;;;;;;38.13;20.60;;;23.30;39.80;;;;;;6167616;28;83356;-50
2020/12/18 15:26:04;;;;;;;35.53;19.60;;;23.20;39.90;;;;;;6174156;27;85222;-50
2020/12/18 15:29:05;;;;;;;37.78;19.58;;;23.30;40.00;;;;;;6174545;28;83064;-47
2020/12/18 15:32:05;;;;;;;35.92;19.77;;;23.20;39.70;;;;;;6172930;28;83376;-51